createdAt,value
2023-02-08T00:00:06.870Z,2.30
2023-02-08T00:02:35.154Z,2.20
2023-02-08T00:05:03.730Z,2.20
2023-02-08T00:07:31.785Z,2.20
2023-02-08T00:10:00.798Z,2.20
2023-02-08T00:12:29.301Z,2.20
2023-02-08T00:14:57.696Z,2.20
2023-02-08T00:17:27.155Z,2.20
2023-02-08T00:19:56.932Z,2.20
2023-02-08T00:22:26.468Z,2.10
2023-02-08T00:24:54.495Z,2.10
2023-02-08T00:27:26.817Z,2.10
2023-02-08T00:29:57.349Z,2.10
2023-02-08T00:32:28.693Z,2.20
2023-02-08T00:34:56.623Z,2.10
2023-02-08T00:37:24.954Z,2.10
2023-02-08T00:39:54.310Z,2.10
2023-02-08T00:42:26.844Z,2.10
2023-02-08T00:44:54.792Z,2.10
2023-02-08T00:47:24.837Z,2.10
2023-02-08T00:49:55.248Z,2.10
2023-02-08T00:52:27.567Z,2.00
2023-02-08T00:54:58.269Z,2.10
2023-02-08T00:57:37.062Z,2.00
2023-02-08T01:00:07.147Z,2.00
2023-02-08T01:02:35.395Z,2.00
2023-02-08T01:05:05.369Z,2.00
2023-02-08T01:07:33.752Z,2.00
2023-02-08T01:10:02.255Z,2.00
2023-02-08T01:12:30.168Z,2.00
2023-02-08T01:14:58.458Z,1.90
2023-02-08T01:17:27.357Z,2.00
2023-02-08T01:19:55.664Z,2.00
2023-02-08T01:22:27.771Z,1.90
2023-02-08T01:24:56.395Z,1.90
2023-02-08T01:27:27.938Z,1.90
2023-02-08T01:29:58.791Z,1.90
2023-02-08T01:32:27.359Z,1.90
2023-02-08T01:34:56.962Z,1.90
2023-02-08T01:37:26.773Z,1.90
2023-02-08T01:39:54.893Z,1.90
2023-02-08T01:42:25.459Z,1.90
2023-02-08T01:45:24.570Z,1.90
2023-02-08T01:47:57.871Z,1.90
2023-02-08T01:50:33.872Z,1.90
2023-02-08T01:53:04.113Z,1.90
2023-02-08T01:55:58.222Z,1.90
2023-02-08T01:58:29.114Z,1.90
2023-02-08T02:00:57.604Z,1.90
2023-02-08T02:03:27.183Z,1.90
2023-02-08T02:06:03.293Z,1.80
2023-02-08T02:08:33.353Z,1.80
2023-02-08T02:11:01.516Z,1.70
2023-02-08T02:13:31.584Z,1.80
2023-02-08T02:15:59.817Z,1.80
2023-02-08T02:18:32.997Z,1.80
2023-02-08T02:21:18.860Z,1.70
2023-02-08T02:24:23.996Z,1.70
2023-02-08T02:27:21.222Z,1.80
2023-02-08T02:30:28.619Z,1.70
2023-02-08T02:33:09.851Z,1.70
2023-02-08T02:35:43.647Z,1.70
2023-02-08T02:38:23.005Z,1.70
2023-02-08T02:41:01.741Z,1.70
2023-02-08T02:43:41.929Z,1.70
2023-02-08T02:46:23.150Z,1.70
2023-02-08T02:49:00.843Z,1.70
2023-02-08T02:51:32.881Z,1.70
2023-02-08T02:54:07.662Z,1.70
2023-02-08T02:56:39.459Z,1.60
2023-02-08T02:59:14.441Z,1.70
2023-02-08T03:01:52.126Z,1.70
2023-02-08T03:04:54.429Z,1.70
2023-02-08T03:07:38.490Z,1.70
2023-02-08T03:10:21.253Z,1.70
2023-02-08T03:12:59.162Z,1.60
2023-02-08T03:15:36.505Z,1.60
2023-02-08T03:18:16.523Z,1.50
2023-02-08T03:20:54.984Z,1.60
2023-02-08T03:23:29.098Z,1.60
2023-02-08T03:26:08.425Z,1.60
2023-02-08T03:28:41.860Z,1.60
2023-02-08T03:31:19.692Z,1.60
2023-02-08T03:33:56.170Z,1.60
2023-02-08T03:36:31.867Z,1.60
2023-02-08T03:39:02.910Z,1.60
2023-02-08T03:41:38.231Z,1.60
2023-02-08T03:44:14.338Z,1.50
2023-02-08T03:46:47.789Z,1.50
2023-02-08T03:49:22.803Z,1.60
2023-02-08T03:51:54.114Z,1.50
2023-02-08T03:54:25.468Z,1.50
2023-02-08T03:56:58.282Z,1.50
2023-02-08T03:59:32.174Z,1.50
2023-02-08T04:02:02.426Z,1.50
2023-02-08T04:04:33.736Z,1.50
2023-02-08T04:07:03.340Z,1.50
2023-02-08T04:09:31.437Z,1.50
2023-02-08T04:11:59.794Z,1.40
2023-02-08T04:14:28.124Z,1.50
2023-02-08T04:16:56.433Z,1.40
2023-02-08T04:19:24.399Z,1.40
2023-02-08T04:21:55.546Z,1.40
2023-02-08T04:24:24.963Z,1.40
2023-02-08T04:26:54.555Z,1.40
2023-02-08T04:29:24.553Z,1.40
2023-02-08T04:31:55.450Z,1.40
2023-02-08T04:34:25.775Z,1.40
2023-02-08T04:36:56.935Z,1.40
2023-02-08T04:39:30.003Z,1.40
2023-02-08T04:41:58.081Z,1.40
2023-02-08T04:44:27.219Z,1.40
2023-02-08T04:46:55.576Z,1.30
2023-02-08T04:49:24.892Z,1.40
2023-02-08T04:51:54.420Z,1.40
2023-02-08T04:54:22.479Z,1.30
2023-02-08T04:56:52.214Z,1.30
2023-02-08T04:59:22.902Z,1.30
2023-02-08T05:01:52.464Z,1.30
2023-02-08T05:04:20.772Z,1.30
2023-02-08T05:06:49.222Z,1.30
2023-02-08T05:09:23.083Z,1.30
2023-02-08T05:11:52.766Z,1.30
2023-02-08T05:14:21.752Z,1.30
2023-02-08T05:17:10.003Z,1.20
2023-02-08T05:19:38.231Z,1.20
2023-02-08T05:22:06.211Z,1.30
2023-02-08T05:24:35.828Z,1.20
2023-02-08T05:27:06.026Z,1.20
2023-02-08T05:29:36.409Z,1.20
2023-02-08T05:32:05.160Z,1.10
2023-02-08T05:34:33.245Z,1.20
2023-02-08T05:37:01.241Z,1.20
2023-02-08T05:39:29.353Z,1.20
2023-02-08T05:41:57.353Z,1.20
2023-02-08T05:44:26.640Z,1.20
2023-02-08T05:46:54.984Z,1.20
2023-02-08T05:49:23.039Z,1.20
2023-02-08T05:51:51.224Z,1.20
2023-02-08T05:54:19.644Z,1.10
2023-02-08T05:56:47.810Z,1.10
2023-02-08T05:59:15.760Z,1.10
2023-02-08T06:01:45.143Z,1.10
2023-02-08T06:04:13.444Z,1.10
2023-02-08T06:06:41.501Z,1.10
2023-02-08T06:09:09.406Z,1.10
2023-02-08T06:11:37.672Z,1.00
2023-02-08T06:14:06.025Z,1.00
2023-02-08T06:16:34.106Z,1.00
2023-02-08T06:19:03.367Z,1.00
2023-02-08T06:21:31.380Z,0.90
2023-02-08T06:23:59.652Z,1.00
2023-02-08T06:26:27.997Z,1.00
2023-02-08T06:28:56.008Z,1.00
2023-02-08T06:31:23.954Z,1.00
2023-02-08T06:33:51.907Z,0.90
2023-02-08T06:36:21.190Z,1.00
2023-02-08T06:38:51.230Z,1.00
2023-02-08T06:41:19.364Z,1.00
2023-02-08T06:43:47.353Z,0.90
2023-02-08T06:46:15.340Z,0.90
2023-02-08T06:48:43.608Z,1.00
2023-02-08T06:51:11.548Z,1.00
2023-02-08T06:53:41.191Z,0.90
2023-02-08T06:56:09.600Z,0.90
2023-02-08T06:58:37.993Z,0.90
2023-02-08T07:01:06.321Z,0.90
2023-02-08T07:03:35.185Z,0.90
2023-02-08T07:06:05.358Z,0.90
2023-02-08T07:08:34.148Z,0.90
2023-02-08T07:11:08.030Z,1.00
2023-02-08T07:13:36.398Z,0.80
2023-02-08T07:16:04.522Z,0.80
2023-02-08T07:18:32.597Z,0.80
2023-02-08T07:21:00.754Z,0.90
2023-02-08T07:23:29.144Z,0.80
2023-02-08T07:26:00.658Z,0.90
2023-02-08T07:28:30.435Z,0.80
2023-02-08T07:30:58.770Z,0.90
2023-02-08T07:33:27.044Z,0.80
2023-02-08T07:35:55.090Z,0.80
2023-02-08T07:38:23.117Z,0.80
2023-02-08T07:40:51.132Z,0.80
2023-02-08T07:43:19.130Z,0.80
2023-02-08T07:45:49.898Z,0.90
2023-02-08T07:48:17.989Z,0.80
2023-02-08T07:50:45.961Z,0.80
2023-02-08T07:53:16.277Z,0.90
2023-02-08T07:55:46.822Z,0.90
2023-02-08T07:58:15.516Z,0.90
2023-02-08T08:00:43.807Z,1.00
2023-02-08T08:03:13.305Z,1.10
2023-02-08T08:05:41.991Z,1.10
2023-02-08T08:08:13.402Z,1.10
2023-02-08T08:10:42.317Z,1.20
2023-02-08T08:13:10.455Z,1.20
2023-02-08T08:15:39.963Z,1.30
2023-02-08T08:18:08.516Z,1.30
2023-02-08T08:20:38.046Z,1.20
2023-02-08T08:23:06.646Z,1.30
2023-02-08T08:25:34.877Z,1.30
2023-02-08T08:28:02.951Z,1.40
2023-02-08T08:30:31.563Z,1.40
2023-02-08T08:32:59.757Z,1.40
2023-02-08T08:35:27.763Z,1.40
2023-02-08T08:37:57.154Z,1.40
2023-02-08T08:40:25.336Z,1.40
2023-02-08T08:42:53.362Z,1.40
2023-02-08T08:45:21.338Z,1.50
2023-02-08T08:47:49.368Z,1.50
2023-02-08T08:50:17.434Z,1.50
2023-02-08T08:52:45.491Z,1.50
2023-02-08T08:55:15.056Z,1.60
2023-02-08T08:57:43.029Z,1.60
2023-02-08T09:00:12.838Z,1.60
2023-02-08T09:02:41.064Z,1.60
2023-02-08T09:05:09.674Z,1.60
2023-02-08T09:07:37.630Z,1.70
2023-02-08T09:10:06.209Z,1.70
2023-02-08T09:12:35.558Z,1.70
2023-02-08T09:15:03.540Z,1.80
2023-02-08T09:17:31.694Z,1.80
2023-02-08T09:19:59.615Z,1.90
2023-02-08T09:22:27.767Z,2.00
2023-02-08T09:24:55.761Z,1.90
2023-02-08T09:27:24.051Z,1.90
2023-02-08T09:29:53.383Z,2.00
2023-02-08T09:32:22.977Z,2.00
2023-02-08T09:34:51.006Z,2.00
2023-02-08T09:37:19.060Z,2.10
2023-02-08T09:39:47.071Z,2.10
2023-02-08T09:42:27.517Z,2.20
2023-02-08T09:45:15.886Z,2.20
2023-02-08T09:47:50.054Z,2.30
2023-02-08T09:50:25.773Z,2.40
2023-02-08T09:53:01.259Z,2.40
2023-02-08T09:55:35.241Z,2.40
2023-02-08T09:58:08.756Z,2.50
2023-02-08T10:00:43.111Z,2.50
2023-02-08T10:03:25.093Z,2.60
2023-02-08T10:05:53.153Z,2.60
2023-02-08T10:08:22.902Z,2.80
2023-02-08T10:10:57.004Z,2.70
2023-02-08T10:13:42.884Z,2.80
2023-02-08T10:16:25.760Z,2.80
2023-02-08T10:19:02.325Z,2.90
2023-02-08T10:21:43.532Z,2.90
2023-02-08T10:24:34.178Z,3.00
2023-02-08T10:27:11.624Z,2.90
2023-02-08T10:29:57.496Z,3.00
2023-02-08T10:32:39.088Z,3.00
2023-02-08T10:35:12.968Z,3.10
2023-02-08T10:37:43.080Z,3.20
2023-02-08T10:40:35.759Z,3.20
2023-02-08T10:43:24.975Z,3.30
2023-02-08T10:45:57.754Z,3.40
2023-02-08T10:48:36.756Z,3.40
2023-02-08T10:51:05.018Z,3.40
2023-02-08T10:53:35.085Z,3.50
2023-02-08T10:56:03.699Z,3.50
2023-02-08T10:58:31.932Z,3.60
2023-02-08T11:01:01.257Z,3.60
2023-02-08T11:03:32.764Z,3.60
2023-02-08T11:06:00.810Z,3.60
2023-02-08T11:08:29.401Z,3.70
2023-02-08T11:11:00.062Z,3.80
2023-02-08T11:13:36.537Z,3.90
2023-02-08T11:16:07.250Z,3.90
2023-02-08T11:18:39.444Z,4.00
2023-02-08T11:21:11.950Z,4.10
2023-02-08T11:23:43.452Z,4.10
2023-02-08T11:26:19.885Z,4.10
2023-02-08T11:29:00.724Z,4.20
2023-02-08T11:31:29.725Z,4.20
2023-02-08T11:34:04.002Z,4.30
2023-02-08T11:36:33.975Z,4.30
2023-02-08T11:39:03.969Z,4.40
2023-02-08T11:41:32.263Z,4.40
2023-02-08T11:44:04.374Z,4.50
2023-02-08T11:46:35.483Z,4.50
2023-02-08T11:49:05.463Z,4.50
2023-02-08T11:51:36.374Z,4.60
2023-02-08T11:54:05.556Z,4.70
2023-02-08T11:56:35.420Z,4.70
2023-02-08T11:59:07.839Z,4.70
2023-02-08T12:01:37.775Z,4.80
2023-02-08T12:04:09.576Z,4.90
2023-02-08T12:07:13.724Z,4.90
2023-02-08T12:10:04.491Z,4.90
2023-02-08T12:12:43.864Z,5.00
2023-02-08T12:15:23.671Z,5.10
2023-02-08T12:18:08.388Z,5.10
2023-02-08T12:20:44.078Z,5.20
2023-02-08T12:23:46.459Z,5.20
2023-02-08T12:26:21.104Z,5.30
2023-02-08T12:29:07.655Z,5.30
2023-02-08T12:31:48.628Z,5.30
2023-02-08T12:34:22.644Z,5.40
2023-02-08T12:37:32.010Z,5.40
2023-02-08T12:40:25.561Z,5.40
2023-02-08T12:43:05.118Z,5.50
2023-02-08T12:45:52.259Z,5.50
2023-02-08T12:48:41.521Z,5.50
2023-02-08T12:51:19.935Z,5.50
2023-02-08T12:53:55.052Z,5.60
2023-02-08T12:56:26.436Z,5.70
2023-02-08T12:59:08.205Z,5.70
2023-02-08T13:01:45.998Z,5.70
2023-02-08T13:04:20.384Z,5.70
2023-02-08T13:06:52.184Z,5.70
2023-02-08T13:09:37.060Z,5.80
2023-02-08T13:12:09.428Z,5.80
2023-02-08T13:14:41.053Z,5.80
2023-02-08T13:17:17.866Z,5.90
2023-02-08T13:20:00.187Z,5.90
2023-02-08T13:22:32.334Z,5.90
2023-02-08T13:25:08.579Z,5.90
2023-02-08T13:27:36.995Z,5.90
2023-02-08T13:30:06.413Z,6.00
2023-02-08T13:32:43.849Z,5.90
2023-02-08T13:35:17.300Z,6.00
2023-02-08T13:37:52.702Z,6.00
2023-02-08T13:40:28.525Z,6.00
2023-02-08T13:43:02.096Z,6.00
2023-02-08T13:45:34.275Z,6.10
2023-02-08T13:48:03.928Z,6.00
2023-02-08T13:50:47.890Z,6.10
2023-02-08T13:53:17.354Z,6.20
2023-02-08T13:55:59.186Z,6.20
2023-02-08T13:58:39.629Z,6.20
2023-02-08T14:01:21.673Z,6.20
2023-02-08T14:04:31.923Z,6.30
2023-02-08T14:07:24.876Z,6.30
2023-02-08T14:10:08.824Z,6.30
2023-02-08T14:12:43.628Z,6.30
2023-02-08T14:15:45.090Z,6.30
2023-02-08T14:18:24.986Z,6.30
2023-02-08T14:21:26.707Z,6.30
2023-02-08T14:24:02.135Z,6.30
2023-02-08T14:26:31.046Z,6.30
2023-02-08T14:29:02.659Z,6.30
2023-02-08T14:31:41.864Z,6.30
2023-02-08T14:34:25.379Z,6.30
2023-02-08T14:37:06.158Z,6.30
2023-02-08T14:39:35.615Z,6.30
2023-02-08T14:42:07.211Z,6.30
2023-02-08T14:45:02.093Z,6.30
2023-02-08T14:48:20.084Z,6.30
2023-02-08T14:51:05.451Z,6.30
2023-02-08T14:53:43.841Z,6.30
2023-02-08T14:56:19.934Z,6.30
2023-02-08T14:58:51.933Z,6.30
2023-02-08T15:01:23.611Z,6.30
2023-02-08T15:03:57.041Z,6.30
2023-02-08T15:07:02.053Z,6.30
2023-02-08T15:09:32.277Z,6.30
2023-02-08T15:12:03.234Z,6.30
2023-02-08T15:14:34.666Z,6.30
2023-02-08T15:17:04.481Z,6.30
2023-02-08T15:19:35.304Z,6.20
2023-02-08T15:22:20.809Z,6.20
2023-02-08T15:24:52.637Z,6.20
2023-02-08T15:27:23.067Z,6.20
2023-02-08T15:29:51.260Z,6.20
2023-02-08T15:32:23.466Z,6.20
2023-02-08T15:34:55.672Z,6.30
2023-02-08T15:37:24.321Z,6.20
2023-02-08T15:39:55.150Z,6.20
2023-02-08T15:42:25.684Z,6.20
2023-02-08T15:44:54.350Z,6.10
2023-02-08T15:47:28.751Z,6.10
2023-02-08T15:49:57.949Z,6.10
2023-02-08T15:52:29.500Z,6.10
2023-02-08T15:54:57.705Z,6.10
2023-02-08T15:57:36.352Z,6.10
2023-02-08T16:00:14.055Z,6.00
2023-02-08T16:02:44.239Z,6.00
2023-02-08T16:05:20.121Z,6.00
2023-02-08T16:07:48.777Z,6.00
2023-02-08T16:10:26.356Z,5.90
2023-02-08T16:12:58.896Z,5.90
2023-02-08T16:15:42.810Z,5.90
2023-02-08T16:18:36.078Z,5.90
2023-02-08T16:21:06.112Z,5.90
2023-02-08T16:23:35.566Z,5.80
2023-02-08T16:26:19.713Z,5.80
2023-02-08T16:28:58.463Z,5.80
2023-02-08T16:31:30.159Z,5.80
2023-02-08T16:34:01.554Z,5.70
2023-02-08T16:36:34.913Z,5.70
2023-02-08T16:39:39.219Z,5.70
2023-02-08T16:42:26.615Z,5.70
2023-02-08T16:45:02.676Z,5.60
2023-02-08T16:47:37.443Z,5.60
2023-02-08T16:50:07.839Z,5.50
2023-02-08T16:52:35.943Z,5.40
2023-02-08T16:55:04.398Z,5.40
2023-02-08T16:57:43.184Z,5.40
2023-02-08T17:00:17.752Z,5.40
2023-02-08T17:02:46.188Z,5.30
2023-02-08T17:05:16.410Z,5.30
2023-02-08T17:07:44.651Z,5.30
2023-02-08T17:10:19.959Z,5.20
2023-02-08T17:12:48.065Z,5.20
2023-02-08T17:15:16.651Z,5.10
2023-02-08T17:17:47.048Z,5.10
2023-02-08T17:20:22.719Z,5.10
2023-02-08T17:22:51.481Z,5.00
2023-02-08T17:25:22.600Z,5.10
2023-02-08T17:27:55.070Z,5.00
2023-02-08T17:30:26.194Z,5.00
2023-02-08T17:32:56.144Z,4.90
2023-02-08T17:35:26.259Z,4.90
2023-02-08T17:37:54.394Z,4.90
2023-02-08T17:40:24.436Z,4.90
2023-02-08T17:42:53.202Z,4.90
2023-02-08T17:45:21.423Z,4.80
2023-02-08T17:47:49.661Z,4.70
2023-02-08T17:50:19.342Z,4.70
2023-02-08T17:52:50.168Z,4.70
2023-02-08T17:55:19.091Z,4.70
2023-02-08T17:57:47.875Z,4.60
2023-02-08T18:00:18.131Z,4.60
2023-02-08T18:02:47.714Z,4.60
2023-02-08T18:05:16.409Z,4.60
2023-02-08T18:07:44.644Z,4.60
2023-02-08T18:10:16.158Z,4.60
2023-02-08T18:12:44.476Z,4.50
2023-02-08T18:15:15.981Z,4.50
2023-02-08T18:17:44.800Z,4.50
2023-02-08T18:20:15.197Z,4.50
2023-02-08T18:22:43.796Z,4.50
2023-02-08T18:25:14.615Z,4.40
2023-02-08T18:27:42.693Z,4.40
2023-02-08T18:30:12.294Z,4.40
2023-02-08T18:32:40.746Z,4.30
2023-02-08T18:35:09.001Z,4.20
2023-02-08T18:37:37.774Z,4.30
2023-02-08T18:40:07.890Z,4.20
2023-02-08T18:42:37.403Z,4.20
2023-02-08T18:45:05.584Z,4.20
2023-02-08T18:47:33.686Z,4.10
2023-02-08T18:50:01.693Z,4.20
2023-02-08T18:52:31.519Z,4.10
2023-02-08T18:54:59.891Z,4.20
2023-02-08T18:57:27.928Z,4.10
2023-02-08T18:59:57.345Z,4.10
2023-02-08T19:02:26.603Z,4.10
2023-02-08T19:04:56.237Z,4.00
2023-02-08T19:07:24.350Z,4.00
2023-02-08T19:09:54.141Z,4.00
2023-02-08T19:12:22.286Z,4.00
2023-02-08T19:14:51.775Z,4.00
2023-02-08T19:17:21.349Z,3.90
2023-02-08T19:19:49.582Z,3.90
2023-02-08T19:22:21.393Z,3.90
2023-02-08T19:24:49.796Z,3.90
2023-02-08T19:27:18.383Z,3.90
2023-02-08T19:29:46.579Z,3.90
2023-02-08T19:32:14.716Z,3.90
2023-02-08T19:34:44.167Z,3.80
2023-02-08T19:37:33.166Z,3.70
2023-02-08T19:40:01.158Z,3.70
2023-02-08T19:42:30.858Z,3.70
2023-02-08T19:44:58.908Z,3.70
2023-02-08T19:47:48.424Z,3.60
2023-02-08T19:50:17.410Z,3.70
2023-02-08T19:52:45.663Z,3.60
2023-02-08T19:55:14.388Z,3.60
2023-02-08T19:57:42.515Z,3.50
2023-02-08T20:00:23.038Z,3.50
2023-02-08T20:02:52.010Z,3.50
2023-02-08T20:05:21.875Z,3.50
2023-02-08T20:07:52.065Z,3.50
2023-02-08T20:10:21.737Z,3.50
2023-02-08T20:12:49.804Z,3.50
2023-02-08T20:15:18.668Z,3.50
2023-02-08T20:17:48.423Z,3.50
2023-02-08T20:20:20.042Z,3.40
2023-02-08T20:23:21.758Z,3.40
2023-02-08T20:25:51.623Z,3.40
2023-02-08T20:28:20.518Z,3.40
2023-02-08T20:30:48.755Z,3.40
2023-02-08T20:33:17.077Z,3.40
2023-02-08T20:35:45.828Z,3.40
2023-02-08T20:38:15.470Z,3.40
2023-02-08T20:40:44.048Z,3.30
2023-02-08T20:43:12.427Z,3.30
2023-02-08T20:45:42.015Z,3.30
2023-02-08T20:48:10.648Z,3.20
2023-02-08T20:50:38.755Z,3.30
2023-02-08T20:53:10.666Z,3.20
2023-02-08T20:55:44.029Z,3.20
2023-02-08T20:58:13.826Z,3.20
2023-02-08T21:00:44.007Z,3.10
2023-02-08T21:03:15.417Z,3.20
2023-02-08T21:05:44.027Z,3.10
2023-02-08T21:08:32.871Z,3.10
2023-02-08T21:11:04.617Z,3.10
2023-02-08T21:13:32.910Z,3.10
2023-02-08T21:16:04.780Z,3.10
2023-02-08T21:18:32.796Z,3.10
2023-02-08T21:21:01.162Z,3.00
2023-02-08T21:23:29.303Z,3.00
2023-02-08T21:25:57.591Z,3.00
2023-02-08T21:28:27.022Z,3.00
2023-02-08T21:30:59.021Z,3.00
2023-02-08T21:33:27.843Z,3.00
2023-02-08T21:35:56.199Z,2.90
2023-02-08T21:38:24.485Z,3.00
2023-02-08T21:40:52.702Z,3.00
2023-02-08T21:43:20.934Z,3.00
2023-02-08T21:45:50.353Z,2.90
2023-02-08T21:48:18.323Z,2.90
2023-02-08T21:51:03.820Z,3.00
2023-02-08T21:53:49.354Z,2.90
2023-02-08T21:56:17.523Z,2.90
2023-02-08T21:58:45.889Z,2.90
2023-02-08T22:01:15.857Z,2.90
2023-02-08T22:03:44.164Z,2.90
2023-02-08T22:06:12.152Z,2.80
2023-02-08T22:08:40.218Z,2.80
2023-02-08T22:11:09.002Z,2.80
2023-02-08T22:13:37.024Z,2.80
2023-02-08T22:16:09.206Z,2.80
2023-02-08T22:18:41.407Z,2.80
2023-02-08T22:21:09.908Z,2.70
2023-02-08T22:23:37.950Z,2.70
2023-02-08T22:26:08.740Z,2.70
2023-02-08T22:28:37.236Z,2.70
2023-02-08T22:31:05.767Z,2.60
2023-02-08T22:33:33.788Z,2.60
2023-02-08T22:36:07.438Z,2.60
2023-02-08T22:38:35.547Z,2.50
2023-02-08T22:41:03.733Z,2.50
2023-02-08T22:43:33.297Z,2.50
2023-02-08T22:46:02.219Z,2.50
2023-02-08T22:48:30.283Z,2.40
2023-02-08T22:50:58.296Z,2.50
2023-02-08T22:53:27.926Z,2.40
2023-02-08T22:55:57.359Z,2.40
2023-02-08T22:58:25.791Z,2.40
2023-02-08T23:00:53.929Z,2.40
2023-02-08T23:03:22.063Z,2.40
2023-02-08T23:05:51.977Z,2.30
2023-02-08T23:08:22.731Z,2.30
2023-02-08T23:10:59.488Z,2.30
2023-02-08T23:13:27.670Z,2.30
2023-02-08T23:15:55.699Z,2.30
2023-02-08T23:18:24.591Z,2.30
2023-02-08T23:20:53.656Z,2.30
2023-02-08T23:23:21.636Z,2.30
2023-02-08T23:25:50.982Z,2.20
2023-02-08T23:28:19.305Z,2.20
2023-02-08T23:30:47.522Z,2.20
2023-02-08T23:33:15.670Z,2.20
2023-02-08T23:35:43.686Z,2.20
2023-02-08T23:38:12.109Z,2.20
2023-02-08T23:40:41.911Z,2.20
2023-02-08T23:43:11.232Z,2.20
2023-02-08T23:45:39.502Z,2.20
2023-02-08T23:48:07.516Z,2.20
2023-02-08T23:50:35.530Z,2.10
2023-02-08T23:53:03.663Z,2.10
2023-02-08T23:55:31.746Z,2.10
2023-02-08T23:57:59.734Z,2.00
